Sunday, February 01, 2015
10:12 UTC
  |  Log In   |  Register Free
Airport Search:

Fairfield County Airport
(KFDW)

Fairfield County Airport Diagram
No Airport Diagram Available

FAA data valid effective January 08, 2015 - March 05, 2015 (unless otherwise noted).

 
 
 
 
 
 
 
 
 
 
 
 
 
 

Current Aviation Weather for Fairfield County Airport (KFDW)

The most recent METAR observation for KFDW was updated at: 0909
METAR Summary (Translated METAR)
KFDW
010855Z AUTO 16004KT 10SM CLR 04/M04 A3027 RMK AO1
KCUB
010953Z AUTO 00000KT 10SM CLR 04/M02 A3029 RMK AO2 SLP256 T00441022 $
(21.5 nm SE from KFDW)
KCAE
010956Z 00000KT 10SM BKN140 04/M02 A3027 RMK AO2 SLP252 T00441022
(22.6 nm SW from KFDW)
TAF Summary (Translated TAF)
KCUB
(21.5 nm SE from KFDW)
010829Z 0108/0206 00000KT P6SM BKN150 FM011600 18007KT P6SM SCT040 BKN120 FM012100 18007KT P6SM BKN050 FM020300 19012G19KT 6SM -RA OVC025
KCAE
(22.6 nm SW from KFDW)
010829Z 0108/0206 00000KT P6SM BKN150 FM011500 18008KT P6SM SCT040 BKN120 FM012100 18008KT P6SM BKN050 FM020300 19012G19KT 6SM -RA OVC025
  Airport Weather Conditions for KFDW

 Current Weather at FDW
39° F
Fair
South winds at 4.6 mph
FDW NOAA Radar

Pressure: 30.27 in
Humidity: 56%
Wind: South at 4.6 MPH (4 KT)
Dew Point: 24.8°F
Visibility: 10.00 mi


Airport Weather Forecast for KFDW

Translated METAR and TAF for KFDW
Translated METAR for KFDW (1012 UTC 01 February 2015)
found at http://aviationweather.gov/adds/metars/
 
METAR text: KFDW 010955Z AUTO 16004KT 10SM CLR 04/M04 A3025 RMK AO1
Conditions at: KFDW (WINNSBORO , SC, US) observed 0955 UTC 01 February 2015
Temperature: 4.0°C (39°F)
Dewpoint: -4.0°C (25°F) [RH = 56%]
Pressure (altimeter): 30.25 inches Hg (1024.5 mb)
Winds: from the SSE (160 degrees) at 5 MPH (4 knots; 2.1 m/s)
Visibility: 10 or more miles (16+ km)
Ceiling: at least 12,000 feet AGL
Clouds: sky clear below 12,000 feet AGL
Weather: automated observation with no human augmentation;
there may or may not be significant weather present at this time
Translated TAF for KFDW

There is no translated TAF available for this airport

Find All Airport Services Find A Hotel Find A Rental Car Find A Golf Course Find A Restaurant $100 Hamburger



FBO's on the Field
FBO Company Facility Photos Services Transportation Aviation Fuel Prices: Prices include tax
Catering Weather Repair Courtesy Rental Type 100LL JetA JetA+ MOGAS 8087
 
S & S Aviation Services

This FBO has not yet been rated
FS:Shell
Last Updated: Jan-28
Login to update fuel prices
SS:
Contact S & S Aviation ServicesMore FBO Information
 
Add another FBO Facility Photos Catering Weather Repair Courtesy Rental Type 100LL JetA JetA+ MOGAS 8087
Services Transportation Aviation Fuel Prices: Prices include tax


model-print
model-print
model-print
model-print